sensor_id;sensor_type;location;lat;lon;timestamp;pressure;altitude;pressure_sealevel;temperature;humidity
53908;BME280;40469;47.998;7.794;2023-04-22T00:01:50;98281.56;;;9.79;100.00
53908;BME280;40469;47.998;7.794;2023-04-22T00:04:16;98280.06;;;9.67;100.00
53908;BME280;40469;47.998;7.794;2023-04-22T00:06:41;98280.00;;;9.71;100.00
53908;BME280;40469;47.998;7.794;2023-04-22T00:09:07;98277.19;;;9.81;100.00
53908;BME280;40469;47.998;7.794;2023-04-22T00:11:32;98273.75;;;9.79;100.00
53908;BME280;40469;47.998;7.794;2023-04-22T00:13:57;98272.22;;;9.67;100.00
53908;BME280;40469;47.998;7.794;2023-04-22T00:16:23;98272.34;;;9.60;100.00
53908;BME280;40469;47.998;7.794;2023-04-22T00:18:50;98276.66;;;9.62;100.00
53908;BME280;40469;47.998;7.794;2023-04-22T00:21:15;98267.78;;;9.73;100.00
53908;BME280;40469;47.998;7.794;2023-04-22T00:23:41;98269.59;;;9.69;100.00
53908;BME280;40469;47.998;7.794;2023-04-22T00:26:09;98270.50;;;9.66;100.00
53908;BME280;40469;47.998;7.794;2023-04-22T00:28:34;98274.31;;;9.47;100.00
53908;BME280;40469;47.998;7.794;2023-04-22T00:31:00;98282.28;;;9.38;100.00
53908;BME280;40469;47.998;7.794;2023-04-22T00:33:27;98277.03;;;9.39;100.00
53908;BME280;40469;47.998;7.794;2023-04-22T00:35:52;98274.44;;;9.39;100.00
53908;BME280;40469;47.998;7.794;2023-04-22T00:38:19;98265.91;;;9.28;100.00
53908;BME280;40469;47.998;7.794;2023-04-22T00:40:44;98271.25;;;9.22;100.00
53908;BME280;40469;47.998;7.794;2023-04-22T00:43:10;98264.22;;;9.25;100.00
53908;BME280;40469;47.998;7.794;2023-04-22T00:45:36;98266.69;;;9.35;100.00
53908;BME280;40469;47.998;7.794;2023-04-22T00:48:02;98260.78;;;9.25;100.00
53908;BME280;40469;47.998;7.794;2023-04-22T00:50:27;98271.28;;;9.17;100.00
53908;BME280;40469;47.998;7.794;2023-04-22T00:52:52;98266.84;;;9.24;100.00
53908;BME280;40469;47.998;7.794;2023-04-22T00:55:18;98274.63;;;9.27;100.00
53908;BME280;40469;47.998;7.794;2023-04-22T00:57:43;98281.63;;;9.25;100.00
53908;BME280;40469;47.998;7.794;2023-04-22T01:00:09;98281.38;;;9.39;100.00
53908;BME280;40469;47.998;7.794;2023-04-22T01:02:37;98277.13;;;9.33;100.00
53908;BME280;40469;47.998;7.794;2023-04-22T01:05:03;98276.31;;;9.29;100.00
53908;BME280;40469;47.998;7.794;2023-04-22T01:07:29;98270.28;;;9.27;100.00
53908;BME280;40469;47.998;7.794;2023-04-22T01:09:56;98259.97;;;9.21;100.00
53908;BME280;40469;47.998;7.794;2023-04-22T01:12:21;98264.41;;;9.15;100.00
53908;BME280;40469;47.998;7.794;2023-04-22T01:14:47;98256.66;;;9.10;100.00
53908;BME280;40469;47.998;7.794;2023-04-22T01:17:13;98256.78;;;9.01;100.00
53908;BME280;40469;47.998;7.794;2023-04-22T01:19:40;98261.31;;;8.89;100.00
53908;BME280;40469;47.998;7.794;2023-04-22T01:22:06;98260.69;;;8.72;100.00
53908;BME280;40469;47.998;7.794;2023-04-22T01:24:33;98270.00;;;8.87;100.00
53908;BME280;40469;47.998;7.794;2023-04-22T01:26:58;98264.75;;;8.91;100.00
53908;BME280;40469;47.998;7.794;2023-04-22T01:29:24;98268.19;;;8.94;100.00
53908;BME280;40469;47.998;7.794;2023-04-22T01:31:50;98270.00;;;8.87;100.00
53908;BME280;40469;47.998;7.794;2023-04-22T01:34:16;98267.53;;;8.78;100.00
53908;BME280;40469;47.998;7.794;2023-04-22T01:36:42;98273.47;;;8.87;100.00
53908;BME280;40469;47.998;7.794;2023-04-22T01:39:08;98275.44;;;8.70;100.00
53908;BME280;40469;47.998;7.794;2023-04-22T01:41:33;98284.34;;;8.52;100.00
53908;BME280;40469;47.998;7.794;2023-04-22T01:44:02;98284.34;;;8.50;100.00
53908;BME280;40469;47.998;7.794;2023-04-22T01:46:27;98285.31;;;8.42;100.00
53908;BME280;40469;47.998;7.794;2023-04-22T01:48:53;98283.63;;;8.42;100.00
53908;BME280;40469;47.998;7.794;2023-04-22T01:51:18;98297.47;;;8.38;100.00
53908;BME280;40469;47.998;7.794;2023-04-22T01:53:46;98293.94;;;8.47;100.00
53908;BME280;40469;47.998;7.794;2023-04-22T01:56:12;98291.34;;;8.47;100.00
53908;BME280;40469;47.998;7.794;2023-04-22T01:58:38;98274.94;;;8.40;100.00
53908;BME280;40469;47.998;7.794;2023-04-22T02:01:04;98294.00;;;8.44;100.00
53908;BME280;40469;47.998;7.794;2023-04-22T02:03:31;98288.81;;;8.42;100.00
53908;BME280;40469;47.998;7.794;2023-04-22T02:05:56;98292.22;;;8.49;100.00
53908;BME280;40469;47.998;7.794;2023-04-22T02:08:22;98303.47;;;8.49;100.00
53908;BME280;40469;47.998;7.794;2023-04-22T02:10:47;98294.03;;;8.42;100.00
53908;BME280;40469;47.998;7.794;2023-04-22T02:13:12;98309.63;;;8.39;100.00
53908;BME280;40469;47.998;7.794;2023-04-22T02:15:38;98310.50;;;8.38;100.00
53908;BME280;40469;47.998;7.794;2023-04-22T02:18:04;98310.47;;;8.40;100.00
53908;BME280;40469;47.998;7.794;2023-04-22T02:20:30;98316.50;;;8.42;100.00
53908;BME280;40469;47.998;7.794;2023-04-22T02:22:55;98318.28;;;8.40;100.00
53908;BME280;40469;47.998;7.794;2023-04-22T02:25:21;98306.19;;;8.37;100.00
53908;BME280;40469;47.998;7.794;2023-04-22T02:27:46;98307.16;;;8.28;100.00
53908;BME280;40469;47.998;7.794;2023-04-22T02:30:12;98313.22;;;8.27;100.00
53908;BME280;40469;47.998;7.794;2023-04-22T02:32:37;98316.66;;;8.29;100.00
53908;BME280;40469;47.998;7.794;2023-04-22T02:35:04;98322.75;;;8.30;100.00
53908;BME280;40469;47.998;7.794;2023-04-22T02:37:30;98332.22;;;8.35;100.00
53908;BME280;40469;47.998;7.794;2023-04-22T02:39:55;98329.63;;;8.34;100.00
53908;BME280;40469;47.998;7.794;2023-04-22T02:42:21;98321.00;;;8.29;100.00
53908;BME280;40469;47.998;7.794;2023-04-22T02:44:46;98328.03;;;8.21;100.00
53908;BME280;40469;47.998;7.794;2023-04-22T02:47:12;98330.66;;;8.18;100.00
53908;BME280;40469;47.998;7.794;2023-04-22T02:49:37;98328.09;;;8.14;100.00
53908;BME280;40469;47.998;7.794;2023-04-22T02:52:03;98336.81;;;8.12;100.00
53908;BME280;40469;47.998;7.794;2023-04-22T02:54:29;98337.66;;;8.11;100.00
53908;BME280;40469;47.998;7.794;2023-04-22T02:56:54;98348.06;;;8.11;100.00
53908;BME280;40469;47.998;7.794;2023-04-22T02:59:19;98350.63;;;8.15;100.00
53908;BME280;40469;47.998;7.794;2023-04-22T03:01:45;98335.91;;;8.13;100.00
53908;BME280;40469;47.998;7.794;2023-04-22T03:04:11;98339.34;;;8.16;100.00
53908;BME280;40469;47.998;7.794;2023-04-22T03:06:38;98333.28;;;8.18;100.00
53908;BME280;40469;47.998;7.794;2023-04-22T03:09:03;98323.75;;;8.16;100.00
53908;BME280;40469;47.998;7.794;2023-04-22T03:11:28;98327.22;;;8.15;100.00
53908;BME280;40469;47.998;7.794;2023-04-22T03:13:54;98330.56;;;8.28;100.00
53908;BME280;40469;47.998;7.794;2023-04-22T03:16:22;98315.75;;;8.33;100.00
53908;BME280;40469;47.998;7.794;2023-04-22T03:18:47;98321.78;;;8.37;100.00
53908;BME280;40469;47.998;7.794;2023-04-22T03:21:13;98320.97;;;8.33;100.00
53908;BME280;40469;47.998;7.794;2023-04-22T03:23:39;98314.84;;;8.36;100.00
53908;BME280;40469;47.998;7.794;2023-04-22T03:26:05;98317.44;;;8.39;100.00
53908;BME280;40469;47.998;7.794;2023-04-22T03:28:30;98310.56;;;8.33;100.00
53908;BME280;40469;47.998;7.794;2023-04-22T03:30:56;98318.34;;;8.35;100.00
53908;BME280;40469;47.998;7.794;2023-04-22T03:33:21;98320.06;;;8.36;100.00
53908;BME280;40469;47.998;7.794;2023-04-22T03:35:49;98312.31;;;8.31;100.00
53908;BME280;40469;47.998;7.794;2023-04-22T03:38:19;98319.31;;;8.28;100.00
53908;BME280;40469;47.998;7.794;2023-04-22T03:40:44;98313.31;;;8.18;100.00
53908;BME280;40469;47.998;7.794;2023-04-22T03:43:09;98315.09;;;8.14;100.00
53908;BME280;40469;47.998;7.794;2023-04-22T03:45:35;98336.94;;;7.98;100.00
53908;BME280;40469;47.998;7.794;2023-04-22T03:48:01;98313.47;;;8.01;100.00
53908;BME280;40469;47.998;7.794;2023-04-22T03:50:26;98304.00;;;7.98;100.00
53908;BME280;40469;47.998;7.794;2023-04-22T03:52:51;98303.97;;;8.03;100.00
53908;BME280;40469;47.998;7.794;2023-04-22T03:55:17;98304.72;;;8.13;100.00
53908;BME280;40469;47.998;7.794;2023-04-22T03:57:42;98300.41;;;8.12;100.00
53908;BME280;40469;47.998;7.794;2023-04-22T04:00:08;98304.69;;;8.14;100.00
53908;BME280;40469;47.998;7.794;2023-04-22T04:02:33;98303.81;;;8.15;100.00
53908;BME280;40469;47.998;7.794;2023-04-22T04:04:58;98309.88;;;8.18;100.00
53908;BME280;40469;47.998;7.794;2023-04-22T04:07:24;98307.25;;;8.21;100.00
53908;BME280;40469;47.998;7.794;2023-04-22T04:09:49;98303.88;;;8.11;100.00
53908;BME280;40469;47.998;7.794;2023-04-22T04:12:15;98299.50;;;8.13;100.00
53908;BME280;40469;47.998;7.794;2023-04-22T04:14:40;98299.59;;;8.07;100.00
53908;BME280;40469;47.998;7.794;2023-04-22T04:17:06;98304.72;;;8.11;100.00
53908;BME280;40469;47.998;7.794;2023-04-22T04:19:36;98297.72;;;8.18;100.00
53908;BME280;40469;47.998;7.794;2023-04-22T04:22:01;98303.03;;;8.09;100.00
53908;BME280;40469;47.998;7.794;2023-04-22T04:24:27;98304.84;;;7.99;100.00
53908;BME280;40469;47.998;7.794;2023-04-22T04:26:53;98297.00;;;8.05;100.00
53908;BME280;40469;47.998;7.794;2023-04-22T04:29:18;98306.44;;;8.14;100.00
53908;BME280;40469;47.998;7.794;2023-04-22T04:31:44;98299.44;;;8.21;100.00
53908;BME280;40469;47.998;7.794;2023-04-22T04:34:10;98295.94;;;8.23;100.00
53908;BME280;40469;47.998;7.794;2023-04-22T04:36:35;98289.88;;;8.23;100.00
53908;BME280;40469;47.998;7.794;2023-04-22T04:39:04;98289.91;;;8.20;100.00
53908;BME280;40469;47.998;7.794;2023-04-22T04:41:29;98289.72;;;8.37;100.00
53908;BME280;40469;47.998;7.794;2023-04-22T04:43:55;98290.47;;;8.48;100.00
53908;BME280;40469;47.998;7.794;2023-04-22T04:46:24;98285.25;;;8.49;100.00
53908;BME280;40469;47.998;7.794;2023-04-22T04:48:50;98273.72;;;8.69;100.00
53908;BME280;40469;47.998;7.794;2023-04-22T04:51:18;98286.63;;;8.77;100.00
53908;BME280;40469;47.998;7.794;2023-04-22T04:53:43;98281.25;;;8.90;100.00
53908;BME280;40469;47.998;7.794;2023-04-22T04:56:09;98281.31;;;8.86;100.00
53908;BME280;40469;47.998;7.794;2023-04-22T04:58:34;98294.34;;;8.84;100.00
53908;BME280;40469;47.998;7.794;2023-04-22T05:00:59;98286.59;;;8.81;100.00
53908;BME280;40469;47.998;7.794;2023-04-22T05:03:25;98286.47;;;8.87;100.00
53908;BME280;40469;47.998;7.794;2023-04-22T05:05:50;98296.94;;;8.86;100.00
53908;BME280;40469;47.998;7.794;2023-04-22T05:08:15;98292.59;;;8.86;100.00
53908;BME280;40469;47.998;7.794;2023-04-22T05:10:41;98297.72;;;8.91;100.00
53908;BME280;40469;47.998;7.794;2023-04-22T05:13:06;98302.91;;;8.92;100.00
53908;BME280;40469;47.998;7.794;2023-04-22T05:15:32;98295.97;;;8.93;100.00
53908;BME280;40469;47.998;7.794;2023-04-22T05:17:57;98305.50;;;8.92;100.00
53908;BME280;40469;47.998;7.794;2023-04-22T05:20:22;98301.19;;;8.93;100.00
53908;BME280;40469;47.998;7.794;2023-04-22T05:22:48;98308.91;;;8.98;100.00
53908;BME280;40469;47.998;7.794;2023-04-22T05:25:15;98314.09;;;8.99;100.00
53908;BME280;40469;47.998;7.794;2023-04-22T05:27:40;98309.19;;;8.78;100.00
53908;BME280;40469;47.998;7.794;2023-04-22T05:30:06;98314.75;;;8.48;100.00
53908;BME280;40469;47.998;7.794;2023-04-22T05:32:32;98320.06;;;8.34;100.00
53908;BME280;40469;47.998;7.794;2023-04-22T05:34:57;98321.09;;;8.23;100.00
53908;BME280;40469;47.998;7.794;2023-04-22T05:37:22;98322.09;;;8.06;100.00
53908;BME280;40469;47.998;7.794;2023-04-22T05:39:48;98323.13;;;7.91;100.00
53908;BME280;40469;47.998;7.794;2023-04-22T05:42:13;98323.16;;;7.87;100.00
53908;BME280;40469;47.998;7.794;2023-04-22T05:44:39;98320.38;;;8.07;100.00
53908;BME280;40469;47.998;7.794;2023-04-22T05:47:04;98321.25;;;8.06;100.00
53908;BME280;40469;47.998;7.794;2023-04-22T05:49:29;98335.16;;;8.03;100.00
53908;BME280;40469;47.998;7.794;2023-04-22T05:51:55;98340.50;;;7.88;100.00
53908;BME280;40469;47.998;7.794;2023-04-22T05:54:20;98343.22;;;7.74;100.00
53908;BME280;40469;47.998;7.794;2023-04-22T05:56:45;98340.47;;;7.89;100.00
53908;BME280;40469;47.998;7.794;2023-04-22T05:59:11;98340.50;;;7.86;100.00
53908;BME280;40469;47.998;7.794;2023-04-22T06:01:36;98336.94;;;7.98;100.00
53908;BME280;40469;47.998;7.794;2023-04-22T06:04:05;98339.44;;;8.07;100.00
53908;BME280;40469;47.998;7.794;2023-04-22T06:06:31;98342.75;;;8.23;100.00
53908;BME280;40469;47.998;7.794;2023-04-22T06:08:56;98345.13;;;8.42;100.00
53908;BME280;40469;47.998;7.794;2023-04-22T06:11:22;98349.31;;;8.60;100.00
53908;BME280;40469;47.998;7.794;2023-04-22T06:13:47;98345.69;;;8.70;100.00
53908;BME280;40469;47.998;7.794;2023-04-22T06:16:13;98344.63;;;8.89;100.00
53908;BME280;40469;47.998;7.794;2023-04-22T06:18:38;98341.78;;;9.05;100.00
53908;BME280;40469;47.998;7.794;2023-04-22T06:21:04;98355.44;;;9.22;100.00
53908;BME280;40469;47.998;7.794;2023-04-22T06:23:29;98357.84;;;9.36;100.00
53908;BME280;40469;47.998;7.794;2023-04-22T06:25:54;98356.78;;;9.49;100.00
53908;BME280;40469;47.998;7.794;2023-04-22T06:28:20;98359.22;;;9.60;100.00
53908;BME280;40469;47.998;7.794;2023-04-22T06:30:46;98357.25;;;9.76;100.00
53908;BME280;40469;47.998;7.794;2023-04-22T06:33:11;98366.56;;;9.90;100.00
53908;BME280;40469;47.998;7.794;2023-04-22T06:35:36;98368.28;;;9.92;100.00
53908;BME280;40469;47.998;7.794;2023-04-22T06:38:02;98366.50;;;9.93;100.00
53908;BME280;40469;47.998;7.794;2023-04-22T06:40:27;98376.94;;;9.94;100.00
53908;BME280;40469;47.998;7.794;2023-04-22T06:42:53;98368.97;;;10.00;100.00
53908;BME280;40469;47.998;7.794;2023-04-22T06:45:18;98382.00;;;10.02;100.00
53908;BME280;40469;47.998;7.794;2023-04-22T06:47:44;98371.50;;;10.06;100.00
53908;BME280;40469;47.998;7.794;2023-04-22T06:50:09;98375.78;;;10.11;100.00
53908;BME280;40469;47.998;7.794;2023-04-22T06:52:35;98369.78;;;10.04;100.00
53908;BME280;40469;47.998;7.794;2023-04-22T06:55:01;98374.06;;;10.10;100.00
53908;BME280;40469;47.998;7.794;2023-04-22T06:57:28;98362.84;;;10.04;100.00
53908;BME280;40469;47.998;7.794;2023-04-22T06:59:53;98373.19;;;10.09;100.00
53908;BME280;40469;47.998;7.794;2023-04-22T07:02:18;98374.13;;;10.05;100.00
53908;BME280;40469;47.998;7.794;2023-04-22T07:04:44;98366.38;;;10.00;100.00
53908;BME280;40469;47.998;7.794;2023-04-22T07:07:09;98376.72;;;10.06;100.00
53908;BME280;40469;47.998;7.794;2023-04-22T07:09:34;98371.47;;;10.08;100.00
53908;BME280;40469;47.998;7.794;2023-04-22T07:12:00;98369.75;;;10.07;100.00
53908;BME280;40469;47.998;7.794;2023-04-22T07:14:26;98374.69;;;10.24;100.00
53908;BME280;40469;47.998;7.794;2023-04-22T07:16:52;98371.97;;;10.29;100.00
53908;BME280;40469;47.998;7.794;2023-04-22T07:19:17;98370.16;;;10.34;100.00
53908;BME280;40469;47.998;7.794;2023-04-22T07:21:42;98373.53;;;10.40;100.00
53908;BME280;40469;47.998;7.794;2023-04-22T07:24:08;98367.19;;;10.54;100.00
53908;BME280;40469;47.998;7.794;2023-04-22T07:26:36;98367.88;;;10.63;100.00
53908;BME280;40469;47.998;7.794;2023-04-22T07:29:02;98362.38;;;10.77;100.00
53908;BME280;40469;47.998;7.794;2023-04-22T07:31:27;98368.22;;;10.89;100.00
53908;BME280;40469;47.998;7.794;2023-04-22T07:33:53;98363.75;;;10.94;100.00
53908;BME280;40469;47.998;7.794;2023-04-22T07:36:18;98357.41;;;11.07;100.00
53908;BME280;40469;47.998;7.794;2023-04-22T07:38:44;98362.47;;;11.13;100.00
53908;BME280;40469;47.998;7.794;2023-04-22T07:41:09;98355.13;;;11.31;100.00
53908;BME280;40469;47.998;7.794;2023-04-22T07:43:35;98348.72;;;11.46;100.00
53908;BME280;40469;47.998;7.794;2023-04-22T07:46:00;98342.53;;;11.48;100.00
53908;BME280;40469;47.998;7.794;2023-04-22T07:48:26;98346.66;;;11.58;100.00
53908;BME280;40469;47.998;7.794;2023-04-22T07:50:51;98353.19;;;11.76;100.00
53908;BME280;40469;47.998;7.794;2023-04-22T07:53:16;98350.25;;;11.92;100.00
53908;BME280;40469;47.998;7.794;2023-04-22T07:55:42;98356.03;;;12.03;100.00
53908;BME280;40469;47.998;7.794;2023-04-22T07:58:07;98346.06;;;12.18;100.00
53908;BME280;40469;47.998;7.794;2023-04-22T08:00:33;98349.31;;;12.27;100.00
53908;BME280;40469;47.998;7.794;2023-04-22T08:02:59;98350.81;;;12.38;100.00
53908;BME280;40469;47.998;7.794;2023-04-22T08:05:24;98335.66;;;12.49;100.00
53908;BME280;40469;47.998;7.794;2023-04-22T08:07:49;98334.50;;;12.59;100.00
53908;BME280;40469;47.998;7.794;2023-04-22T08:10:15;98338.47;;;12.74;100.00
53908;BME280;40469;47.998;7.794;2023-04-22T08:12:41;98337.41;;;12.80;100.00
53908;BME280;40469;47.998;7.794;2023-04-22T08:15:07;98337.88;;;12.94;100.00
53908;BME280;40469;47.998;7.794;2023-04-22T08:17:32;98340.16;;;13.05;100.00
53908;BME280;40469;47.998;7.794;2023-04-22T08:19:58;98326.31;;;13.31;100.00
53908;BME280;40469;47.998;7.794;2023-04-22T08:22:23;98323.44;;;13.39;100.00
53908;BME280;40469;47.998;7.794;2023-04-22T08:24:49;98329.09;;;13.53;100.00
53908;BME280;40469;47.998;7.794;2023-04-22T08:27:15;98314.47;;;13.73;100.00
53908;BME280;40469;47.998;7.794;2023-04-22T08:29:40;98314.94;;;14.11;100.00
53908;BME280;40469;47.998;7.794;2023-04-22T08:32:05;98311.78;;;14.26;100.00
53908;BME280;40469;47.998;7.794;2023-04-22T08:34:31;98305.59;;;14.52;100.00
53908;BME280;40469;47.998;7.794;2023-04-22T08:36:56;98308.16;;;14.54;100.00
53908;BME280;40469;47.998;7.794;2023-04-22T08:39:21;98310.72;;;14.55;100.00
53908;BME280;40469;47.998;7.794;2023-04-22T08:41:48;98307.88;;;14.63;100.00
53908;BME280;40469;47.998;7.794;2023-04-22T08:44:15;98311.59;;;14.81;100.00
53908;BME280;40469;47.998;7.794;2023-04-22T08:46:43;98308.66;;;14.89;100.00
53908;BME280;40469;47.998;7.794;2023-04-22T08:49:13;98310.53;;;15.09;100.00
53908;BME280;40469;47.998;7.794;2023-04-22T08:51:40;98298.25;;;15.09;100.00
53908;BME280;40469;47.998;7.794;2023-04-22T08:54:06;98293.97;;;15.29;100.00
53908;BME280;40469;47.998;7.794;2023-04-22T08:56:33;98296.00;;;15.44;100.00
53908;BME280;40469;47.998;7.794;2023-04-22T08:58:59;98299.91;;;15.34;100.00
53908;BME280;40469;47.998;7.794;2023-04-22T09:01:26;98301.03;;;15.28;100.00
53908;BME280;40469;47.998;7.794;2023-04-22T09:03:54;98310.50;;;15.32;100.00
53908;BME280;40469;47.998;7.794;2023-04-22T09:06:22;98306.53;;;15.44;100.00
53908;BME280;40469;47.998;7.794;2023-04-22T09:08:48;98299.06;;;15.78;100.00
53908;BME280;40469;47.998;7.794;2023-04-22T09:11:15;98296.44;;;16.19;100.00
53908;BME280;40469;47.998;7.794;2023-04-22T09:13:41;98290.88;;;16.45;100.00
53908;BME280;40469;47.998;7.794;2023-04-22T09:16:08;98282.06;;;16.65;100.00
53908;BME280;40469;47.998;7.794;2023-04-22T09:18:43;98288.94;;;16.89;100.00
53908;BME280;40469;47.998;7.794;2023-04-22T09:21:11;98279.19;;;16.91;100.00
53908;BME280;40469;47.998;7.794;2023-04-22T09:23:50;98280.75;;;16.95;100.00
53908;BME280;40469;47.998;7.794;2023-04-22T09:26:20;98267.50;;;16.96;100.00
53908;BME280;40469;47.998;7.794;2023-04-22T09:28:54;98284.34;;;17.30;100.00
53908;BME280;40469;47.998;7.794;2023-04-22T09:31:20;98283.56;;;17.65;100.00
53908;BME280;40469;47.998;7.794;2023-04-22T09:33:52;98278.00;;;18.23;100.00
53908;BME280;40469;47.998;7.794;2023-04-22T09:36:28;98283.69;;;18.49;100.00
53908;BME280;40469;47.998;7.794;2023-04-22T09:38:55;98289.63;;;18.70;100.00
53908;BME280;40469;47.998;7.794;2023-04-22T09:41:31;98294.16;;;19.01;100.00
53908;BME280;40469;47.998;7.794;2023-04-22T09:43:58;98291.75;;;19.28;100.00
53908;BME280;40469;47.998;7.794;2023-04-22T09:46:24;98291.06;;;19.87;100.00
53908;BME280;40469;47.998;7.794;2023-04-22T09:48:51;98285.28;;;20.11;100.00
53908;BME280;40469;47.998;7.794;2023-04-22T09:51:18;98278.69;;;20.46;100.00
53908;BME280;40469;47.998;7.794;2023-04-22T09:53:44;98285.25;;;20.84;96.53
53908;BME280;40469;47.998;7.794;2023-04-22T09:56:15;98278.66;;;21.18;92.12
53908;BME280;40469;47.998;7.794;2023-04-22T09:58:42;98274.56;;;21.27;94.42
53908;BME280;40469;47.998;7.794;2023-04-22T10:01:07;98266.28;;;21.86;86.76
53908;BME280;40469;47.998;7.794;2023-04-22T10:03:32;98264.25;;;21.77;83.40
53908;BME280;40469;47.998;7.794;2023-04-22T10:05:58;98262.94;;;21.70;81.89
53908;BME280;40469;47.998;7.794;2023-04-22T10:08:23;98275.84;;;22.29;84.61
53908;BME280;40469;47.998;7.794;2023-04-22T10:10:48;98271.59;;;23.02;71.73
53908;BME280;40469;47.998;7.794;2023-04-22T10:13:14;98272.16;;;23.31;73.57
53908;BME280;40469;47.998;7.794;2023-04-22T10:15:51;98267.25;;;23.62;62.06
53908;BME280;40469;47.998;7.794;2023-04-22T10:18:23;98277.72;;;23.76;63.74
53908;BME280;40469;47.998;7.794;2023-04-22T10:20:49;98271.53;;;23.27;55.03
53908;BME280;40469;47.998;7.794;2023-04-22T10:23:20;98269.56;;;22.56;66.28
53908;BME280;40469;47.998;7.794;2023-04-22T10:25:47;98264.31;;;22.03;75.34
53908;BME280;40469;47.998;7.794;2023-04-22T10:28:15;98256.34;;;21.63;64.62
53908;BME280;40469;47.998;7.794;2023-04-22T10:30:41;98249.28;;;21.49;67.84
53908;BME280;40469;47.998;7.794;2023-04-22T10:36:06;98246.69;;;20.78;82.03
53908;BME280;40469;47.998;7.794;2023-04-22T10:41:29;98246.41;;;20.54;83.87
53908;BME280;40469;47.998;7.794;2023-04-22T10:43:59;98239.75;;;20.33;87.22
53908;BME280;40469;47.998;7.794;2023-04-22T10:48:57;98240.06;;;19.83;93.04
53908;BME280;40469;47.998;7.794;2023-04-22T10:51:39;98250.88;;;19.64;96.44
53908;BME280;40469;47.998;7.794;2023-04-22T10:54:05;98252.78;;;19.46;100.00
53908;BME280;40469;47.998;7.794;2023-04-22T10:56:31;98253.94;;;19.26;100.00
53908;BME280;40469;47.998;7.794;2023-04-22T10:58:56;98262.03;;;19.07;100.00
53908;BME280;40469;47.998;7.794;2023-04-22T11:01:22;98262.63;;;18.97;100.00
53908;BME280;40469;47.998;7.794;2023-04-22T11:03:49;98262.22;;;18.88;100.00
53908;BME280;40469;47.998;7.794;2023-04-22T11:06:20;98276.41;;;18.70;100.00
53908;BME280;40469;47.998;7.794;2023-04-22T11:09:07;98258.28;;;18.46;100.00
53908;BME280;40469;47.998;7.794;2023-04-22T11:11:33;98262.81;;;18.44;100.00
53908;BME280;40469;47.998;7.794;2023-04-22T11:13:58;98256.34;;;18.50;100.00
53908;BME280;40469;47.998;7.794;2023-04-22T11:16:24;98259.22;;;18.45;100.00
53908;BME280;40469;47.998;7.794;2023-04-22T11:18:49;98251.75;;;18.53;100.00
53908;BME280;40469;47.998;7.794;2023-04-22T11:21:15;98268.41;;;18.71;100.00
53908;BME280;40469;47.998;7.794;2023-04-22T11:23:51;98260.75;;;18.99;100.00
53908;BME280;40469;47.998;7.794;2023-04-22T11:26:17;98260.81;;;19.61;100.00
53908;BME280;40469;47.998;7.794;2023-04-22T11:28:46;98261.72;;;20.20;100.00
53908;BME280;40469;47.998;7.794;2023-04-22T11:31:13;98254.25;;;20.56;100.00
53908;BME280;40469;47.998;7.794;2023-04-22T11:33:39;98254.06;;;20.59;100.00
53908;BME280;40469;47.998;7.794;2023-04-22T11:36:11;98254.66;;;20.64;100.00
53908;BME280;40469;47.998;7.794;2023-04-22T11:38:36;98250.88;;;20.68;100.00
53908;BME280;40469;47.998;7.794;2023-04-22T11:41:02;98248.41;;;20.51;94.93
53908;BME280;40469;47.998;7.794;2023-04-22T11:43:29;98246.50;;;20.53;99.04
53908;BME280;40469;47.998;7.794;2023-04-22T11:45:55;98253.00;;;20.33;100.00
53908;BME280;40469;47.998;7.794;2023-04-22T11:48:21;98256.41;;;20.06;100.00
53908;BME280;40469;47.998;7.794;2023-04-22T11:50:46;98254.22;;;20.13;97.19
53908;BME280;40469;47.998;7.794;2023-04-22T11:53:14;98255.22;;;19.96;96.33
53908;BME280;40469;47.998;7.794;2023-04-22T11:55:41;98253.63;;;19.93;98.45
53908;BME280;40469;47.998;7.794;2023-04-22T11:58:10;98264.72;;;20.00;96.67
53908;BME280;40469;47.998;7.794;2023-04-22T12:00:39;98263.63;;;19.74;96.16
53908;BME280;40469;47.998;7.794;2023-04-22T12:03:06;98273.53;;;19.54;99.34
53908;BME280;40469;47.998;7.794;2023-04-22T12:05:34;98270.34;;;19.63;99.18
53908;BME280;40469;47.998;7.794;2023-04-22T12:08:22;98268.25;;;19.54;99.33
53908;BME280;40469;47.998;7.794;2023-04-22T12:10:48;98279.38;;;19.45;100.00
53908;BME280;40469;47.998;7.794;2023-04-22T12:13:18;98280.78;;;19.66;100.00
53908;BME280;40469;47.998;7.794;2023-04-22T12:15:44;98266.88;;;19.93;100.00
53908;BME280;40469;47.998;7.794;2023-04-22T12:18:10;98267.16;;;20.03;95.61
53908;BME280;40469;47.998;7.794;2023-04-22T12:20:40;98259.28;;;20.32;97.67
53908;BME280;40469;47.998;7.794;2023-04-22T12:23:11;98247.94;;;20.44;93.45
53908;BME280;40469;47.998;7.794;2023-04-22T12:25:38;98252.16;;;20.61;87.40
53908;BME280;40469;47.998;7.794;2023-04-22T12:28:04;98257.78;;;20.71;87.63
53908;BME280;40469;47.998;7.794;2023-04-22T12:30:29;98248.97;;;20.85;87.65
53908;BME280;40469;47.998;7.794;2023-04-22T12:32:54;98262.59;;;20.93;82.14
53908;BME280;40469;47.998;7.794;2023-04-22T12:35:20;98265.16;;;20.80;84.33
53908;BME280;40469;47.998;7.794;2023-04-22T12:37:45;98259.13;;;20.63;93.28
53908;BME280;40469;47.998;7.794;2023-04-22T12:40:11;98257.41;;;19.89;87.52
53908;BME280;40469;47.998;7.794;2023-04-22T12:42:36;98270.25;;;20.25;88.09
53908;BME280;40469;47.998;7.794;2023-04-22T12:45:02;98265.09;;;20.08;90.85
53908;BME280;40469;47.998;7.794;2023-04-22T12:47:27;98272.91;;;20.25;91.20
53908;BME280;40469;47.998;7.794;2023-04-22T12:49:53;98267.59;;;20.25;90.18
53908;BME280;40469;47.998;7.794;2023-04-22T12:52:18;98266.09;;;20.50;91.32
53908;BME280;40469;47.998;7.794;2023-04-22T12:54:43;98259.19;;;20.76;89.60
53908;BME280;40469;47.998;7.794;2023-04-22T12:57:09;98255.59;;;20.92;83.99
53908;BME280;40469;47.998;7.794;2023-04-22T12:59:34;98263.91;;;21.00;87.45
53908;BME280;40469;47.998;7.794;2023-04-22T13:02:00;98265.34;;;20.77;89.92